Time;durP1;ratioP1;P1;durP2;ratioP2;P2;SDS_P1;SDS_P2;PMS_P1;PMS_P2;Temp;Humidity;BMP_temperature;BMP_pressure;BME280_temperature;BME280_humidity;BME280_pressure;Samples;Min_cycle;Max_cycle;Signal;HPM_P1;HPM_P2
2021/08/08 00:02:03;;;;;;;7.30;6.25;;;;;;;17.92;77.83;98120.55;2173472;81;21064;-80
2021/08/08 00:05:04;;;;;;;8.23;6.65;;;;;;;17.88;77.61;98121.09;2173291;82;20964;-80
2021/08/08 00:08:04;;;;;;;6.97;6.28;;;;;;;17.87;77.89;98126.42;2173309;81;20953;-80
2021/08/08 00:11:07;;;;;;;7.08;6.00;;;;;;;17.85;78.06;98125.59;2173343;81;20941;-80
2021/08/08 00:14:07;;;;;;;10.00;6.62;;;;;;;17.79;78.27;98112.98;2128736;84;21047;-79
2021/08/08 00:17:08;;;;;;;8.75;5.42;;;;;;;17.77;78.09;98118.77;2128767;84;20951;-80
2021/08/08 00:20:08;;;;;;;9.08;6.42;;;;;;;17.75;78.74;98107.38;2128832;84;20979;-79
2021/08/08 00:23:09;;;;;;;17.02;7.22;;;;;;;17.75;78.32;98106.52;2128776;84;20987;-80
2021/08/08 00:26:09;;;;;;;7.65;6.25;;;;;;;17.75;78.44;98101.23;2128810;84;21328;-80
2021/08/08 00:29:10;;;;;;;11.50;6.78;;;;;;;17.77;78.75;98095.00;2135441;83;21014;-79
2021/08/08 00:32:11;;;;;;;8.88;6.53;;;;;;;17.81;78.68;98093.14;2138338;83;20998;-79
2021/08/08 00:35:11;;;;;;;11.83;6.80;;;;;;;17.87;78.69;98092.09;2138305;83;21362;-80
2021/08/08 00:38:12;;;;;;;7.35;6.65;;;;;;;17.87;78.56;98089.00;2138262;83;20968;-79
2021/08/08 00:41:12;;;;;;;6.85;6.17;;;;;;;17.87;78.50;98072.30;2138335;83;20971;-79
2021/08/08 00:44:13;;;;;;;9.45;5.95;;;;;;;17.87;78.57;98076.26;2138324;83;20908;-80
2021/08/08 00:47:13;;;;;;;7.83;5.55;;;;;;;17.88;78.60;98072.25;2138326;83;20975;-80
2021/08/08 00:50:14;;;;;;;10.70;6.30;;;;;;;17.90;78.58;98066.47;2138350;83;21308;-80
2021/08/08 00:53:14;;;;;;;10.58;6.40;;;;;;;17.91;78.47;98061.60;2138501;83;20972;-80
2021/08/08 00:56:15;;;;;;;8.13;6.28;;;;;;;17.93;78.39;98062.88;2138432;83;20995;-80
2021/08/08 00:59:15;;;;;;;7.60;5.90;;;;;;;17.95;78.30;98055.77;2138128;83;20994;-80
2021/08/08 01:02:15;;;;;;;7.65;6.12;;;;;;;17.96;78.28;98054.86;2138562;83;21360;-80
2021/08/08 01:05:16;;;;;;;6.70;5.83;;;;;;;17.96;78.21;98048.27;2138542;83;20924;-79
2021/08/08 01:08:16;;;;;;;7.90;5.95;;;;;;;17.97;78.16;98046.03;2138326;83;20963;-80
2021/08/08 01:11:17;;;;;;;11.05;5.85;;;;;;;17.99;78.60;98042.89;2138345;83;20924;-80
2021/08/08 01:14:18;;;;;;;6.65;5.65;;;;;;;18.00;78.15;98037.56;2138796;83;20900;-79
2021/08/08 01:17:18;;;;;;;6.28;5.40;;;;;;;18.02;77.89;98022.98;2138643;83;20924;-80
2021/08/08 01:20:18;;;;;;;6.15;5.53;;;;;;;18.03;77.71;98027.36;2138392;83;20964;-79
2021/08/08 01:23:20;;;;;;;6.95;5.72;;;;;;;18.06;77.74;98026.80;2138181;83;20960;-79
2021/08/08 01:26:20;;;;;;;7.58;5.80;;;;;;;18.09;77.70;98022.75;2138332;83;21368;-80
2021/08/08 01:29:21;;;;;;;7.00;5.08;;;;;;;18.15;77.50;98020.37;2138098;83;21031;-80
2021/08/08 01:32:21;;;;;;;7.03;5.25;;;;;;;18.19;77.62;98014.53;2138420;83;20947;-80
2021/08/08 01:35:22;;;;;;;5.95;5.35;;;;;;;18.22;77.39;98017.98;2138566;83;21387;-80
2021/08/08 01:38:22;;;;;;;5.80;5.20;;;;;;;18.27;77.12;98023.11;2138207;83;21396;-80
2021/08/08 01:41:23;;;;;;;6.35;5.55;;;;;;;18.28;76.97;98019.10;2138451;83;21011;-81
2021/08/08 01:44:23;;;;;;;8.70;5.55;;;;;;;18.28;76.84;98011.17;2138029;83;21010;-79
2021/08/08 01:47:24;;;;;;;6.47;5.62;;;;;;;18.27;76.79;98009.91;2138274;83;20960;-80
2021/08/08 01:50:30;;;;;;;7.42;5.92;;;;;;;18.24;77.00;98012.19;2138493;83;20980;-80
2021/08/08 01:53:27;;;;;;;10.68;5.47;;;;;;;18.23;76.87;98007.81;2182763;81;21063;-80
2021/08/08 01:56:27;;;;;;;9.45;5.40;;;;;;;18.25;76.96;98001.16;2183188;81;20948;-80
2021/08/08 01:59:28;;;;;;;6.33;5.45;;;;;;;18.25;76.97;98015.23;2183234;82;20995;-79
2021/08/08 02:02:28;;;;;;;6.72;5.00;;;;;;;18.26;76.72;98013.46;2183178;82;20964;-80
2021/08/08 02:08:31;;;;;;;7.85;5.28;;;;;;;18.24;76.63;98002.08;2165480;82;21031;-80
2021/08/08 02:11:32;;;;;;;5.65;5.15;;;;;;;18.23;76.65;98001.67;2183294;81;20999;-80
2021/08/08 02:14:33;;;;;;;6.97;5.22;;;;;;;18.23;76.57;98005.63;2183359;82;20975;-80
2021/08/08 02:17:33;;;;;;;6.37;4.87;;;;;;;18.22;76.51;98011.37;2183158;82;20985;-80
2021/08/08 02:20:34;;;;;;;7.45;5.08;;;;;;;18.22;76.51;98011.37;2183300;81;20933;-80
2021/08/08 02:23:34;;;;;;;7.55;4.95;;;;;;;18.21;76.57;98008.33;2183337;81;21362;-80
2021/08/08 02:26:35;;;;;;;6.40;5.05;;;;;;;18.21;76.61;98012.74;2183241;81;20960;-80
2021/08/08 02:29:35;;;;;;;5.60;5.10;;;;;;;18.22;76.58;98014.02;2176174;82;21036;-79
2021/08/08 02:32:36;;;;;;;8.73;5.03;;;;;;;18.24;76.52;98009.55;2173615;81;20921;-80
2021/08/08 02:35:36;;;;;;;9.88;5.28;;;;;;;18.27;76.58;98005.94;2173397;81;20977;-79
2021/08/08 02:38:37;;;;;;;5.83;5.15;;;;;;;18.28;76.31;98001.93;2173370;82;21364;-80
2021/08/08 02:41:37;;;;;;;6.58;4.65;;;;;;;18.30;76.31;98002.74;2173372;81;21019;-79
2021/08/08 02:44:38;;;;;;;6.10;5.37;;;;;;;18.32;76.23;98011.94;2173394;82;21001;-80
2021/08/08 02:47:39;;;;;;;7.65;5.65;;;;;;;18.34;76.13;98022.87;2173649;82;20956;-80
2021/08/08 02:50:39;;;;;;;5.30;4.80;;;;;;;18.35;76.01;98023.27;2173400;81;21364;-79
2021/08/08 02:53:40;;;;;;;7.47;5.00;;;;;;;18.37;76.03;98032.02;2173271;82;21344;-79
2021/08/08 02:56:40;;;;;;;5.50;4.90;;;;;;;18.37;75.96;98029.38;2173481;81;20948;-79
2021/08/08 02:59:41;;;;;;;6.67;4.45;;;;;;;18.38;76.00;98033.74;2173324;82;21036;-79
2021/08/08 03:02:41;;;;;;;5.30;4.80;;;;;;;18.39;75.86;98034.61;2173372;81;21011;-80
2021/08/08 03:05:42;;;;;;;8.70;4.92;;;;;;;18.40;75.75;98036.34;2173242;81;20981;-79
2021/08/08 03:08:44;;;;;;;5.20;4.70;;;;;;;18.37;75.76;98026.73;2173164;82;20975;-80
2021/08/08 03:11:47;;;;;;;5.85;5.20;;;;;;;18.37;75.66;98039.08;2173509;81;21289;-79
2021/08/08 03:14:48;;;;;;;5.42;4.60;;;;;;;18.35;75.65;98044.41;2173526;81;20984;-80
2021/08/08 03:17:49;;;;;;;5.87;4.45;;;;;;;18.35;75.54;98048.38;2173402;82;21385;-80
2021/08/08 03:20:49;;;;;;;5.80;4.05;;;;;;;18.35;75.49;98046.19;2173583;81;20980;-80
2021/08/08 03:23:49;;;;;;;4.42;3.80;;;;;;;18.37;75.39;98061.08;2173409;81;20949;-80
2021/08/08 03:26:50;;;;;;;6.85;4.30;;;;;;;18.40;75.23;98058.34;2173321;81;20973;-80
2021/08/08 03:29:51;;;;;;;5.60;4.03;;;;;;;18.44;75.03;98057.33;2185030;81;21019;-80
2021/08/08 03:32:51;;;;;;;6.55;4.28;;;;;;;18.50;74.86;98059.36;2190046;81;20952;-79
2021/08/08 03:35:52;;;;;;;6.08;3.83;;;;;;;18.58;74.65;98069.23;2189888;81;20956;-80
2021/08/08 03:38:52;;;;;;;6.50;3.65;;;;;;;18.58;74.65;98069.23;2190136;81;21289;-79
2021/08/08 03:41:53;;;;;;;4.58;3.77;;;;;;;18.60;74.32;98076.19;2190112;81;20945;-79
2021/08/08 03:44:53;;;;;;;4.33;3.42;;;;;;;18.67;74.44;98092.30;2190053;81;20896;-80
2021/08/08 03:47:54;;;;;;;3.92;3.52;;;;;;;18.67;74.44;98092.30;2190434;81;20952;-80
2021/08/08 03:50:54;;;;;;;8.33;3.90;;;;;;;18.71;73.89;98099.20;2190266;81;20954;-79
2021/08/08 03:53:54;;;;;;;5.55;3.70;;;;;;;18.77;73.73;98108.27;2190190;81;20984;-79
2021/08/08 03:56:55;;;;;;;5.85;4.25;;;;;;;18.83;73.53;98113.81;2190192;81;21328;-80
2021/08/08 03:59:55;;;;;;;3.80;3.50;;;;;;;18.89;73.34;98120.67;2190059;81;21016;-79
2021/08/08 04:02:56;;;;;;;6.62;3.77;;;;;;;18.96;73.03;98111.63;2190018;81;20987;-80
2021/08/08 04:05:56;;;;;;;4.12;3.80;;;;;;;18.96;73.03;98111.63;2190105;81;20948;-79
2021/08/08 04:08:57;;;;;;;7.55;3.62;;;;;;;19.02;72.77;98110.95;2190209;81;21426;-80
2021/08/08 04:11:58;;;;;;;6.20;3.22;;;;;;;19.09;72.55;98119.13;2190142;81;20995;-80
2021/08/08 04:14:58;;;;;;;5.10;3.27;;;;;;;19.16;72.28;98119.78;2190100;81;20955;-79
2021/08/08 04:17:59;;;;;;;3.58;3.25;;;;;;;19.23;72.11;98111.17;2190258;81;20956;-80
2021/08/08 04:20:59;;;;;;;4.60;3.75;;;;;;;19.34;71.81;98115.63;2190321;81;21324;-80
2021/08/08 04:24:00;;;;;;;4.53;3.80;;;;;;;19.52;71.23;98113.70;2189716;81;20976;-79
2021/08/08 04:27:00;;;;;;;3.62;3.30;;;;;;;19.69;70.89;98115.73;2190164;81;20999;-80
2021/08/08 04:30:01;;;;;;;5.08;3.37;;;;;;;19.83;70.59;98121.86;2189787;81;21024;-80
2021/08/08 04:33:01;;;;;;;4.78;3.30;;;;;;;19.90;70.13;98132.63;2190034;81;20944;-79
2021/08/08 04:36:02;;;;;;;8.53;3.52;;;;;;;19.94;70.14;98135.14;2190148;81;21003;-80
2021/08/08 04:39:02;;;;;;;6.25;3.80;;;;;;;19.94;70.00;98152.78;2190254;81;21333;-79
2021/08/08 04:42:02;;;;;;;3.47;3.25;;;;;;;19.92;69.96;98161.24;2190178;81;20995;-80
2021/08/08 04:45:03;;;;;;;4.12;3.60;;;;;;;19.90;69.97;98165.73;2190007;81;20991;-80
2021/08/08 04:48:03;;;;;;;3.65;3.35;;;;;;;19.92;69.93;98167.86;2190185;81;20959;-81
2021/08/08 04:51:04;;;;;;;5.97;3.50;;;;;;;19.99;69.88;98181.32;2190203;81;21000;-80
2021/08/08 04:54:04;;;;;;;6.22;3.72;;;;;;;20.05;69.72;98187.72;2190035;81;21352;-80
2021/08/08 04:57:05;;;;;;;5.00;3.67;;;;;;;20.09;69.75;98209.20;2190336;81;21309;-80
2021/08/08 05:00:05;;;;;;;4.75;3.80;;;;;;;20.06;70.08;98213.29;2190132;81;21394;-79
2021/08/08 05:03:06;;;;;;;7.72;4.12;;;;;;;20.08;70.20;98215.89;2189865;81;20979;-79
2021/08/08 05:06:06;;;;;;;7.50;4.53;;;;;;;20.10;70.72;98222.86;2190079;81;20944;-79
2021/08/08 05:09:07;;;;;;;4.50;4.00;;;;;;;20.19;70.62;98222.52;2190255;81;20960;-79
2021/08/08 05:12:08;;;;;;;5.78;4.12;;;;;;;20.29;70.66;98217.75;2189861;81;20964;-80
2021/08/08 05:15:08;;;;;;;6.50;3.83;;;;;;;20.39;70.60;98231.52;2189735;81;21431;-80
2021/08/08 05:18:09;;;;;;;4.87;3.95;;;;;;;20.45;70.46;98249.42;2190111;81;20955;-80
2021/08/08 05:21:10;;;;;;;10.35;3.75;;;;;;;20.52;70.53;98260.66;2189905;81;20975;-80
2021/08/08 05:24:10;;;;;;;4.03;2.52;;;;;;;20.57;70.50;98274.61;2189808;81;20941;-80
2021/08/08 05:27:11;;;;;;;4.60;2.15;;;;;;;20.54;70.19;98281.35;2189890;81;21223;-80
2021/08/08 05:30:11;;;;;;;2.67;2.00;;;;;;;20.44;70.28;98275.98;2179042;81;21044;-79
2021/08/08 05:33:12;;;;;;;2.20;2.00;;;;;;;20.39;70.23;98283.20;2172831;81;21337;-80
2021/08/08 05:36:12;;;;;;;3.65;1.77;;;;;;;20.39;70.32;98293.38;2173408;82;20972;-80
2021/08/08 05:39:13;;;;;;;3.08;1.70;;;;;;;20.47;70.06;98287.80;2173322;82;21004;-81
2021/08/08 05:42:13;;;;;;;1.75;1.65;;;;;;;20.53;69.54;98286.25;2173078;81;20977;-80
2021/08/08 05:45:14;;;;;;;2.17;1.85;;;;;;;20.62;69.35;98291.21;2173769;81;20909;-80
2021/08/08 05:48:14;;;;;;;1.57;1.47;;;;;;;20.63;68.77;98303.09;2173174;81;20960;-80
2021/08/08 05:51:15;;;;;;;4.87;2.00;;;;;;;20.54;68.79;98314.49;2173193;82;20963;-80
2021/08/08 05:54:15;;;;;;;3.45;1.90;;;;;;;20.47;68.92;98331.55;2173261;81;21332;-80
2021/08/08 05:57:16;;;;;;;3.10;1.92;;;;;;;20.27;69.14;98335.73;2173390;81;21349;-80
2021/08/08 06:00:16;;;;;;;2.65;2.25;;;;;;;20.13;69.65;98336.68;2173065;81;21001;-81
2021/08/08 06:03:18;;;;;;;2.37;1.90;;;;;;;20.04;69.94;98350.24;2173338;81;21024;-80
2021/08/08 06:06:19;;;;;;;4.17;2.42;;;;;;;19.91;70.28;98364.33;2173287;82;20953;-80
2021/08/08 06:09:19;;;;;;;3.20;2.30;;;;;;;19.73;70.94;98371.09;2173201;82;20972;-80
2021/08/08 06:12:20;;;;;;;3.02;2.50;;;;;;;19.60;71.20;98371.54;2173206;81;20988;-80
2021/08/08 06:15:20;;;;;;;4.62;2.20;;;;;;;19.59;71.62;98379.94;2173250;82;20933;-80
2021/08/08 06:18:21;;;;;;;4.97;2.70;;;;;;;19.56;72.13;98390.63;2173621;81;21011;-80
2021/08/08 06:21:21;;;;;;;5.67;2.75;;;;;;;19.47;73.99;98400.59;2173669;81;20985;-81
2021/08/08 06:24:22;;;;;;;3.90;2.80;;;;;;;19.39;73.10;98405.67;2173226;81;20949;-81
2021/08/08 06:27:22;;;;;;;9.85;2.80;;;;;;;19.26;74.11;98409.60;2173189;82;21611;-82
2021/08/08 06:30:23;;;;;;;3.83;3.20;;;;;;;19.13;74.38;98429.85;2183815;81;21020;-81
2021/08/08 06:33:23;;;;;;;3.47;3.17;;;;;;;19.03;74.57;98427.90;2189852;81;20924;-81
2021/08/08 06:36:24;;;;;;;6.40;4.58;;;;;;;19.01;75.35;98422.65;2189755;81;20972;-81
2021/08/08 06:39:24;;;;;;;6.50;4.70;;;;;;;19.11;75.58;98442.26;2189716;81;20968;-81
2021/08/08 06:42:25;;;;;;;8.28;4.42;;;;;;;19.14;75.43;98438.20;2189936;81;21363;-82
2021/08/08 06:45:26;;;;;;;7.10;4.35;;;;;;;19.03;75.57;98438.02;2189840;81;21308;-80
2021/08/08 06:48:26;;;;;;;9.00;5.00;;;;;;;18.96;76.31;98446.17;2189673;81;20952;-81
2021/08/08 06:51:26;;;;;;;8.35;3.40;;;;;;;18.89;76.68;98466.63;2189875;81;20984;-82
2021/08/08 06:54:27;;;;;;;4.12;3.25;;;;;;;18.89;76.68;98466.63;2189699;81;20965;-80
2021/08/08 06:57:28;;;;;;;5.00;3.20;;;;;;;18.91;76.41;98475.39;2189909;81;21364;-79
2021/08/08 07:00:28;;;;;;;4.05;3.35;;;;;;;18.96;77.32;98484.07;2189626;81;21023;-81
2021/08/08 07:03:28;;;;;;;3.60;2.92;;;;;;;18.95;76.93;98481.47;2189761;81;21035;-79
2021/08/08 07:06:29;;;;;;;4.72;2.65;;;;;;;19.05;76.62;98486.91;2189726;81;20964;-80
2021/08/08 07:09:29;;;;;;;3.40;3.00;;;;;;;19.20;76.84;98481.68;2190079;81;21340;-80
2021/08/08 07:12:30;;;;;;;3.17;2.98;;;;;;;19.29;76.16;98486.70;2189851;81;20964;-80
2021/08/08 07:15:31;;;;;;;3.42;3.12;;;;;;;19.57;76.13;98498.25;2189579;81;20941;-80
2021/08/08 07:18:31;;;;;;;2.90;2.60;;;;;;;19.87;75.78;98502.20;2189837;81;20936;-80
2021/08/08 07:21:32;;;;;;;5.25;2.90;;;;;;;20.21;75.61;98501.58;2189908;81;20987;-79
2021/08/08 07:24:32;;;;;;;5.17;3.05;;;;;;;20.49;73.99;98504.22;2189944;81;20933;-80
2021/08/08 07:27:33;;;;;;;3.20;2.55;;;;;;;20.60;72.98;98509.16;2189729;81;21026;-80
2021/08/08 07:30:33;;;;;;;3.87;2.58;;;;;;;20.54;72.11;98514.67;2189814;81;21028;-80
2021/08/08 07:33:34;;;;;;;4.42;2.85;;;;;;;20.53;72.07;98518.24;2189869;81;20964;-80
2021/08/08 07:36:34;;;;;;;2.65;2.30;;;;;;;20.58;71.83;98521.61;2189838;81;20988;-80
2021/08/08 07:39:35;;;;;;;3.72;2.40;;;;;;;20.65;71.45;98536.39;2189930;81;20991;-79
2021/08/08 07:42:35;;;;;;;3.50;2.60;;;;;;;20.77;70.49;98539.95;2189779;81;21160;-78
2021/08/08 07:45:36;;;;;;;3.75;2.00;;;;;;;20.89;70.42;98536.91;2189891;81;20976;-81
2021/08/08 07:48:36;;;;;;;3.15;2.45;;;;;;;21.11;69.79;98532.19;2189821;81;20932;-80
2021/08/08 07:51:37;;;;;;;2.58;2.37;;;;;;;21.16;69.60;98534.21;2189852;81;20972;-80
2021/08/08 07:54:37;;;;;;;2.37;2.17;;;;;;;21.34;68.68;98542.88;2189850;81;20951;-80
2021/08/08 07:57:38;;;;;;;2.40;2.22;;;;;;;21.53;67.75;98533.31;2189799;81;21379;-81
2021/08/08 08:00:38;;;;;;;2.60;2.10;;;;;;;21.51;66.98;98552.41;2189689;81;20967;-81
2021/08/08 08:03:39;;;;;;;2.12;1.92;;;;;;;21.55;67.25;98552.70;2189813;81;20956;-80
2021/08/08 08:06:39;;;;;;;2.87;1.70;;;;;;;21.63;66.75;98541.34;2189868;81;20944;-79
2021/08/08 08:09:40;;;;;;;3.30;1.82;;;;;;;21.82;66.81;98555.28;2189787;81;21011;-80
2021/08/08 08:12:40;;;;;;;2.00;1.80;;;;;;;21.93;65.77;98563.25;2189835;81;21372;-80
2021/08/08 08:15:41;;;;;;;5.85;2.20;;;;;;;21.83;64.61;98559.21;2189953;81;20953;-79
2021/08/08 08:18:41;;;;;;;1.72;1.62;;;;;;;21.80;64.32;98553.15;2189825;81;20987;-79
2021/08/08 08:21:44;;;;;;;1.77;1.67;;;;;;;21.85;64.42;98550.72;2189872;81;20968;-80
2021/08/08 08:24:44;;;;;;;2.27;2.08;;;;;;;21.74;64.97;98551.59;2189863;81;20992;-80
2021/08/08 08:27:45;;;;;;;1.75;1.65;;;;;;;21.81;64.62;98545.58;2189765;81;20976;-81
2021/08/08 08:30:46;;;;;;;2.10;2.00;;;;;;;21.92;64.35;98551.34;2189939;81;21004;-79
2021/08/08 08:33:46;;;;;;;2.05;1.82;;;;;;;22.40;63.33;98545.91;2189971;81;21325;-80
2021/08/08 08:36:47;;;;;;;3.50;2.50;;;;;;;22.82;63.13;98543.80;2189961;81;20991;-79
2021/08/08 08:39:47;;;;;;;3.15;2.10;;;;;;;23.00;61.85;98551.46;2189816;81;20960;-80
2021/08/08 08:42:47;;;;;;;1.87;1.77;;;;;;;23.16;60.53;98556.06;2189727;81;20987;-80
2021/08/08 08:45:48;;;;;;;1.60;1.50;;;;;;;23.07;60.68;98548.47;2189853;81;21016;-81
2021/08/08 08:48:49;;;;;;;1.95;1.70;;;;;;;23.18;60.39;98548.87;2189098;81;21015;-78
2021/08/08 08:51:50;;;;;;;1.90;1.80;;;;;;;23.16;57.61;98541.88;2188912;81;21039;-79
2021/08/08 08:54:50;;;;;;;1.92;1.80;;;;;;;23.18;59.03;98540.02;2189602;81;20956;-79
2021/08/08 08:57:51;;;;;;;3.58;2.08;;;;;;;23.15;58.19;98554.80;2189449;81;20972;-79
2021/08/08 09:00:51;;;;;;;2.10;2.00;;;;;;;23.18;58.80;98558.66;2189492;81;21023;-80
2021/08/08 09:03:52;;;;;;;2.30;2.10;;;;;;;23.55;57.89;98563.75;2189837;81;21331;-80
2021/08/08 09:06:52;;;;;;;2.10;2.00;;;;;;;23.79;57.53;98554.63;2189975;81;20987;-80
2021/08/08 09:09:53;;;;;;;2.08;1.98;;;;;;;24.04;55.55;98559.22;2189925;81;20952;-80
2021/08/08 09:12:53;;;;;;;2.22;2.00;;;;;;;24.19;55.93;98555.42;2189817;81;20956;-79
2021/08/08 09:15:54;;;;;;;3.10;2.90;;;;;;;24.12;54.99;98572.19;2189639;81;20956;-79
2021/08/08 09:18:54;;;;;;;4.17;2.37;;;;;;;24.09;54.45;98567.86;2189670;81;20995;-80
2021/08/08 09:21:55;;;;;;;2.40;2.20;;;;;;;23.92;54.56;98577.12;2189660;81;20976;-79
2021/08/08 09:24:55;;;;;;;2.85;1.85;;;;;;;23.77;55.33;98574.69;2189629;81;20935;-80
2021/08/08 09:27:56;;;;;;;2.40;2.20;;;;;;;23.77;54.89;98583.16;2189665;81;20988;-81
2021/08/08 09:30:56;;;;;;;2.15;1.95;;;;;;;23.59;53.11;98597.31;2180313;81;21060;-81
2021/08/08 09:33:57;;;;;;;2.75;2.55;;;;;;;23.63;55.07;98601.56;2172969;82;20961;-81
2021/08/08 09:36:57;;;;;;;3.95;2.40;;;;;;;23.54;54.67;98603.28;2172716;82;20953;-80
2021/08/08 09:39:58;;;;;;;2.37;2.20;;;;;;;23.42;54.40;98610.01;2172799;81;21000;-80
2021/08/08 09:42:58;;;;;;;2.20;2.00;;;;;;;23.45;54.40;98614.73;2173144;82;21014;-80
2021/08/08 09:45:59;;;;;;;2.50;2.30;;;;;;;23.53;54.51;98602.88;2173231;81;21340;-80
2021/08/08 09:48:59;;;;;;;2.37;2.20;;;;;;;23.72;53.89;98605.15;2173302;82;20985;-79
2021/08/08 09:52:00;;;;;;;2.50;2.30;;;;;;;23.75;53.92;98602.34;2173547;81;20960;-81
2021/08/08 09:55:00;;;;;;;2.40;2.15;;;;;;;23.71;53.94;98604.75;2173180;82;20933;-80
2021/08/08 09:58:01;;;;;;;3.27;2.95;;;;;;;23.77;54.21;98615.13;2173150;82;20933;-79
2021/08/08 10:01:02;;;;;;;2.35;2.25;;;;;;;23.76;53.94;98626.73;2172963;82;21067;-80
2021/08/08 10:04:02;;;;;;;3.55;2.40;;;;;;;23.92;54.18;98627.77;2173076;81;20956;-79
2021/08/08 10:07:03;;;;;;;2.42;2.22;;;;;;;24.73;53.60;98624.85;2173258;81;20953;-80
2021/08/08 10:10:03;;;;;;;2.70;2.50;;;;;;;25.04;53.17;98629.57;2172893;81;20973;-80
2021/08/08 10:13:04;;;;;;;2.47;1.92;;;;;;;25.11;53.69;98627.92;2173104;81;20972;-80
2021/08/08 10:16:09;;;;;;;2.52;2.33;;;;;;;25.17;52.33;98627.17;2172974;82;20925;-79
2021/08/08 10:19:07;;;;;;;2.00;1.90;;;;;;;25.21;52.50;98629.22;2128224;83;21007;-80
2021/08/08 10:22:07;;;;;;;2.30;2.15;;;;;;;25.52;52.34;98637.86;2128650;84;21003;-81
2021/08/08 10:25:08;;;;;;;2.35;2.10;;;;;;;25.55;52.21;98639.90;2128645;84;21027;-80
2021/08/08 10:28:08;;;;;;;2.12;2.02;;;;;;;25.15;51.63;98646.42;2128586;84;21000;-81
2021/08/08 10:31:09;;;;;;;2.62;2.42;;;;;;;24.84;52.16;98660.83;2133832;83;21431;-80
2021/08/08 10:34:09;;;;;;;2.55;2.37;;;;;;;24.92;52.85;98654.65;2137749;83;20940;-80
2021/08/08 10:37:10;;;;;;;2.95;2.50;;;;;;;25.01;52.34;98656.42;2138190;83;20984;-79
2021/08/08 10:40:10;;;;;;;2.65;2.45;;;;;;;24.55;52.63;98660.44;2138193;83;20919;-79
2021/08/08 10:43:11;;;;;;;2.90;2.60;;;;;;;24.31;52.33;98665.13;2137667;83;21050;-79
2021/08/08 10:46:12;;;;;;;2.47;2.27;;;;;;;24.09;52.01;98666.52;2137864;83;20959;-79
2021/08/08 10:49:12;;;;;;;3.33;2.15;;;;;;;24.13;52.07;98672.11;2138059;83;20923;-81
2021/08/08 10:52:13;;;;;;;2.50;2.30;;;;;;;24.14;51.74;98667.17;2138433;83;20952;-81
2021/08/08 10:55:13;;;;;;;2.25;2.15;;;;;;;24.18;51.70;98683.89;2138111;83;20964;-80
2021/08/08 10:58:15;;;;;;;4.08;2.70;;;;;;;24.28;52.71;98685.27;2137932;83;21394;-80
2021/08/08 11:01:16;;;;;;;3.35;2.55;;;;;;;24.31;52.54;98679.80;2137843;83;21058;-80
2021/08/08 11:04:16;;;;;;;2.87;2.40;;;;;;;24.38;52.87;98688.38;2137712;83;21378;-79
2021/08/08 11:07:17;;;;;;;2.47;2.37;;;;;;;24.39;51.90;98676.77;2137583;83;21331;-78
2021/08/08 11:10:17;;;;;;;3.45;2.20;;;;;;;24.49;51.82;98674.06;2137620;83;20936;-80
2021/08/08 11:13:18;;;;;;;2.00;1.90;;;;;;;24.69;52.37;98672.65;2138059;83;20952;-80
2021/08/08 11:16:19;;;;;;;2.95;1.90;;;;;;;25.00;50.51;98674.72;2137946;83;20931;-79
2021/08/08 11:19:19;;;;;;;2.47;2.27;;;;;;;25.31;49.90;98675.89;2138400;83;20944;-79
2021/08/08 11:22:20;;;;;;;1.90;1.80;;;;;;;24.98;49.95;98677.94;2138113;83;21415;-79
2021/08/08 11:25:22;;;;;;;4.50;1.87;;;;;;;24.69;50.78;98686.47;2137607;83;20987;-79
2021/08/08 11:28:22;;;;;;;1.87;1.77;;;;;;;24.68;51.23;98690.94;2183022;81;21024;-79
2021/08/08 11:31:23;;;;;;;1.87;1.77;;;;;;;24.67;50.81;98683.87;2177512;81;21423;-79
2021/08/08 11:34:23;;;;;;;3.72;2.10;;;;;;;24.92;51.21;98682.69;2173023;81;20964;-79
2021/08/08 11:37:24;;;;;;;2.00;1.90;;;;;;;25.15;50.66;98678.47;2173213;82;20929;-79
2021/08/08 11:40:24;;;;;;;3.45;2.10;;;;;;;25.15;49.12;98664.25;2173005;81;20961;-79
2021/08/08 11:43:25;;;;;;;2.00;1.90;;;;;;;25.18;50.20;98661.42;2172752;81;20965;-79
2021/08/08 11:46:25;;;;;;;2.47;1.90;;;;;;;25.33;48.96;98659.31;2173216;81;21286;-80
2021/08/08 11:49:26;;;;;;;3.15;1.85;;;;;;;25.32;49.03;98663.80;2173246;81;20909;-80
2021/08/08 11:52:26;;;;;;;1.70;1.60;;;;;;;25.45;49.78;98668.52;2173002;81;20984;-79
2021/08/08 11:55:27;;;;;;;6.70;1.80;;;;;;;25.53;48.82;98676.53;2172984;82;20988;-79
2021/08/08 11:58:28;;;;;;;1.90;1.80;;;;;;;25.68;49.23;98675.77;2173266;81;20913;-79
2021/08/08 12:01:28;;;;;;;1.90;1.80;;;;;;;25.70;48.67;98682.37;2172852;82;20968;-79
2021/08/08 12:04:29;;;;;;;2.20;2.00;;;;;;;25.76;48.30;98686.06;2172894;82;21392;-80
2021/08/08 12:07:30;;;;;;;2.87;1.92;;;;;;;25.83;49.07;98686.60;2173142;82;20968;-79
2021/08/08 12:10:30;;;;;;;2.47;2.12;;;;;;;26.22;47.66;98692.53;2173037;81;21338;-79
2021/08/08 12:13:31;;;;;;;4.42;1.90;;;;;;;26.26;46.51;98697.25;2172973;81;20952;-79
2021/08/08 12:16:31;;;;;;;2.37;2.17;;;;;;;26.32;47.17;98707.61;2173065;82;20973;-79
2021/08/08 12:19:32;;;;;;;2.08;1.90;;;;;;;26.18;47.50;98716.86;2172188;81;20952;-79
2021/08/08 12:22:32;;;;;;;1.98;1.87;;;;;;;25.87;47.52;98713.10;2172497;81;21454;-79
2021/08/08 12:25:33;;;;;;;1.80;1.70;;;;;;;25.87;48.64;98717.11;2172957;81;21345;-79
2021/08/08 12:28:33;;;;;;;2.25;2.15;;;;;;;25.68;47.94;98725.69;2173049;82;20965;-79
2021/08/08 12:31:34;;;;;;;2.15;2.05;;;;;;;25.93;46.92;98724.81;2181368;81;21048;-80
2021/08/08 12:34:35;;;;;;;2.25;2.00;;;;;;;26.14;46.64;98717.50;2189549;81;20952;-79
2021/08/08 12:37:35;;;;;;;2.15;2.05;;;;;;;26.03;47.31;98719.87;2189604;81;20999;-79
2021/08/08 12:40:36;;;;;;;2.12;1.90;;;;;;;25.89;47.95;98722.38;2189742;81;21325;-80
2021/08/08 12:43:36;;;;;;;2.20;2.00;;;;;;;26.47;48.20;98729.56;2189635;81;21410;-79
2021/08/08 12:46:37;;;;;;;2.50;1.87;;;;;;;26.63;46.37;98720.21;2189305;81;20980;-79
2021/08/08 12:49:38;;;;;;;1.75;1.65;;;;;;;26.62;46.61;98712.66;2189459;81;20960;-79
2021/08/08 12:52:38;;;;;;;1.90;1.80;;;;;;;26.70;46.64;98710.03;2189493;81;20920;-79
2021/08/08 12:55:39;;;;;;;2.85;1.80;;;;;;;26.91;46.33;98714.21;2189651;81;20937;-79
2021/08/08 12:58:39;;;;;;;2.10;2.00;;;;;;;26.68;45.84;98722.64;2189574;81;20964;-78
2021/08/08 13:01:40;;;;;;;2.00;1.90;;;;;;;26.14;46.52;98730.88;2189263;81;21016;-80
2021/08/08 13:04:40;;;;;;;2.10;1.98;;;;;;;25.90;46.57;98737.00;2189641;81;21320;-79
2021/08/08 13:07:41;;;;;;;1.75;1.65;;;;;;;25.96;47.01;98734.02;2190081;81;20927;-80
2021/08/08 13:10:41;;;;;;;2.10;2.00;;;;;;;25.88;47.13;98734.88;2189819;81;20957;-80
2021/08/08 13:13:42;;;;;;;2.10;1.90;;;;;;;25.90;47.84;98730.32;2189845;81;21007;-80
2021/08/08 13:16:42;;;;;;;2.33;2.12;;;;;;;26.12;47.12;98737.25;2189911;81;20929;-80
2021/08/08 13:19:43;;;;;;;2.10;2.00;;;;;;;26.20;47.62;98733.22;2189982;81;21375;-80
2021/08/08 13:22:43;;;;;;;1.57;1.47;;;;;;;26.39;44.80;98735.80;2189946;81;21438;-79
2021/08/08 13:25:44;;;;;;;1.90;1.80;;;;;;;26.30;47.00;98741.14;2189911;81;20976;-79
2021/08/08 13:28:47;;;;;;;2.65;1.80;;;;;;;26.52;46.03;98738.20;2189775;81;20972;-79
2021/08/08 13:31:48;;;;;;;1.55;1.47;;;;;;;26.61;46.52;98741.72;2181343;81;21012;-81
2021/08/08 13:34:48;;;;;;;1.80;1.70;;;;;;;26.89;45.49;98736.20;2173367;81;21053;-81
2021/08/08 13:37:51;;;;;;;1.70;1.60;;;;;;;26.85;44.89;98737.28;2173758;82;20921;-82
2021/08/08 13:40:51;;;;;;;1.77;1.67;;;;;;;26.91;44.77;98739.17;2129229;83;20987;-81
2021/08/08 13:43:52;;;;;;;2.62;1.60;;;;;;;27.06;45.20;98745.52;2129216;84;20967;-81
2021/08/08 13:46:52;;;;;;;1.52;1.42;;;;;;;27.20;44.82;98747.41;2129578;84;21362;-82
2021/08/08 13:49:53;;;;;;;2.02;1.70;;;;;;;27.36;44.42;98747.39;2128993;84;20948;-81
2021/08/08 13:52:53;;;;;;;2.55;1.67;;;;;;;27.21;44.20;98741.96;2128818;84;20955;-81
2021/08/08 13:55:54;;;;;;;1.52;1.42;;;;;;;27.27;43.47;98740.27;2128956;84;20940;-82
2021/08/08 13:58:54;;;;;;;3.02;1.60;;;;;;;27.46;43.73;98745.42;2128675;84;21340;-80
2021/08/08 14:01:55;;;;;;;1.85;1.75;;;;;;;27.50;43.01;98746.11;2128428;84;21075;-81
2021/08/08 14:04:55;;;;;;;1.82;1.30;;;;;;;27.47;43.78;98735.09;2128285;84;20988;-82
2021/08/08 14:07:56;;;;;;;3.40;3.10;;;;;;;27.26;43.64;98737.67;2129237;84;20928;-79
2021/08/08 14:10:56;;;;;;;1.87;1.70;;;;;;;27.09;43.50;98732.42;2130869;84;21332;-80
2021/08/08 14:13:57;;;;;;;2.25;1.70;;;;;;;26.92;44.08;98736.02;2131196;84;20963;-81